sensor_id;sensor_type;location;lat;lon;timestamp;P1;durP1;ratioP1;P2;durP2;ratioP2
49139;SDS011;34959;49.310;8.646;2023-02-28T00:01:27;0.73;;;0.38;;
49139;SDS011;34959;49.310;8.646;2023-02-28T00:03:53;1.75;;;0.30;;
49139;SDS011;34959;49.310;8.646;2023-02-28T00:06:18;0.43;;;0.28;;
49139;SDS011;34959;49.310;8.646;2023-02-28T00:08:44;0.35;;;0.28;;
49139;SDS011;34959;49.310;8.646;2023-02-28T00:11:12;1.95;;;0.45;;
49139;SDS011;34959;49.310;8.646;2023-02-28T00:13:40;1.80;;;0.35;;
49139;SDS011;34959;49.310;8.646;2023-02-28T00:16:08;0.47;;;0.30;;
49139;SDS011;34959;49.310;8.646;2023-02-28T00:18:36;0.70;;;0.30;;
49139;SDS011;34959;49.310;8.646;2023-02-28T00:21:01;0.60;;;0.40;;
49139;SDS011;34959;49.310;8.646;2023-02-28T00:23:27;0.82;;;0.32;;
49139;SDS011;34959;49.310;8.646;2023-02-28T00:25:53;1.08;;;0.30;;
49139;SDS011;34959;49.310;8.646;2023-02-28T00:28:18;0.47;;;0.30;;
49139;SDS011;34959;49.310;8.646;2023-02-28T00:30:44;3.92;;;0.47;;
49139;SDS011;34959;49.310;8.646;2023-02-28T00:33:09;1.95;;;0.30;;
49139;SDS011;34959;49.310;8.646;2023-02-28T00:35:35;1.02;;;0.40;;
49139;SDS011;34959;49.310;8.646;2023-02-28T00:38:00;0.57;;;0.30;;
49139;SDS011;34959;49.310;8.646;2023-02-28T00:40:26;0.82;;;0.38;;
49139;SDS011;34959;49.310;8.646;2023-02-28T00:42:51;0.60;;;0.30;;
49139;SDS011;34959;49.310;8.646;2023-02-28T00:45:16;1.20;;;0.40;;
49139;SDS011;34959;49.310;8.646;2023-02-28T00:47:42;2.65;;;0.50;;
49139;SDS011;34959;49.310;8.646;2023-02-28T00:50:08;2.50;;;0.60;;
49139;SDS011;34959;49.310;8.646;2023-02-28T00:52:34;2.60;;;0.50;;
49139;SDS011;34959;49.310;8.646;2023-02-28T00:55:00;1.27;;;0.43;;
49139;SDS011;34959;49.310;8.646;2023-02-28T00:57:25;2.50;;;0.50;;
49139;SDS011;34959;49.310;8.646;2023-02-28T00:59:51;3.80;;;0.40;;
49139;SDS011;34959;49.310;8.646;2023-02-28T01:02:19;1.40;;;0.47;;
49139;SDS011;34959;49.310;8.646;2023-02-28T01:04:45;0.63;;;0.40;;
49139;SDS011;34959;49.310;8.646;2023-02-28T01:07:11;1.75;;;0.30;;
49139;SDS011;34959;49.310;8.646;2023-02-28T01:09:36;1.00;;;0.30;;
49139;SDS011;34959;49.310;8.646;2023-02-28T01:12:02;0.82;;;0.25;;
49139;SDS011;34959;49.310;8.646;2023-02-28T01:14:27;3.30;;;0.45;;
49139;SDS011;34959;49.310;8.646;2023-02-28T01:16:53;1.27;;;0.40;;
49139;SDS011;34959;49.310;8.646;2023-02-28T01:19:18;3.20;;;0.40;;
49139;SDS011;34959;49.310;8.646;2023-02-28T01:21:44;3.25;;;0.40;;
49139;SDS011;34959;49.310;8.646;2023-02-28T01:24:09;2.17;;;0.43;;
49139;SDS011;34959;49.310;8.646;2023-02-28T01:26:34;6.13;;;0.52;;
49139;SDS011;34959;49.310;8.646;2023-02-28T01:29:00;1.13;;;0.40;;
49139;SDS011;34959;49.310;8.646;2023-02-28T01:31:25;0.75;;;0.32;;
49139;SDS011;34959;49.310;8.646;2023-02-28T01:33:51;1.55;;;0.38;;
49139;SDS011;34959;49.310;8.646;2023-02-28T01:36:17;0.73;;;0.30;;
49139;SDS011;34959;49.310;8.646;2023-02-28T01:38:44;0.98;;;0.30;;
49139;SDS011;34959;49.310;8.646;2023-02-28T01:41:12;0.68;;;0.40;;
49139;SDS011;34959;49.310;8.646;2023-02-28T01:46:07;1.13;;;0.50;;
49139;SDS011;34959;49.310;8.646;2023-02-28T01:48:32;0.68;;;0.30;;
49139;SDS011;34959;49.310;8.646;2023-02-28T01:51:02;0.47;;;0.30;;
49139;SDS011;34959;49.310;8.646;2023-02-28T01:53:35;1.05;;;0.40;;
49139;SDS011;34959;49.310;8.646;2023-02-28T01:56:04;2.13;;;0.43;;
49139;SDS011;34959;49.310;8.646;2023-02-28T01:58:31;1.33;;;0.35;;
49139;SDS011;34959;49.310;8.646;2023-02-28T02:00:57;0.52;;;0.20;;
49139;SDS011;34959;49.310;8.646;2023-02-28T02:03:22;1.00;;;0.40;;
49139;SDS011;34959;49.310;8.646;2023-02-28T02:05:48;0.73;;;0.22;;
49139;SDS011;34959;49.310;8.646;2023-02-28T02:08:16;0.73;;;0.30;;
49139;SDS011;34959;49.310;8.646;2023-02-28T02:10:51;1.35;;;0.50;;
49139;SDS011;34959;49.310;8.646;2023-02-28T02:16:11;0.50;;;0.40;;
49139;SDS011;34959;49.310;8.646;2023-02-28T02:25:39;1.05;;;0.50;;
49139;SDS011;34959;49.310;8.646;2023-02-28T02:28:19;1.08;;;0.40;;
49139;SDS011;34959;49.310;8.646;2023-02-28T02:38:54;1.45;;;0.40;;
49139;SDS011;34959;49.310;8.646;2023-02-28T02:41:48;3.00;;;0.43;;
49139;SDS011;34959;49.310;8.646;2023-02-28T02:47:24;1.70;;;0.80;;
49139;SDS011;34959;49.310;8.646;2023-02-28T02:49:55;0.30;;;0.30;;
49139;SDS011;34959;49.310;8.646;2023-02-28T02:52:23;1.25;;;0.47;;
49139;SDS011;34959;49.310;8.646;2023-02-28T02:54:53;2.15;;;0.20;;
49139;SDS011;34959;49.310;8.646;2023-02-28T02:57:21;1.80;;;0.40;;
49139;SDS011;34959;49.310;8.646;2023-02-28T02:59:49;0.77;;;0.40;;
49139;SDS011;34959;49.310;8.646;2023-02-28T03:02:16;1.27;;;0.40;;
49139;SDS011;34959;49.310;8.646;2023-02-28T03:04:48;1.77;;;0.43;;
49139;SDS011;34959;49.310;8.646;2023-02-28T03:07:16;1.55;;;0.40;;
49139;SDS011;34959;49.310;8.646;2023-02-28T03:09:49;0.90;;;0.30;;
49139;SDS011;34959;49.310;8.646;2023-02-28T03:12:18;0.50;;;0.40;;
49139;SDS011;34959;49.310;8.646;2023-02-28T03:14:51;0.80;;;0.40;;
49139;SDS011;34959;49.310;8.646;2023-02-28T03:17:29;1.35;;;0.50;;
49139;SDS011;34959;49.310;8.646;2023-02-28T03:20:02;1.00;;;0.47;;
49139;SDS011;34959;49.310;8.646;2023-02-28T03:22:39;1.27;;;0.50;;
49139;SDS011;34959;49.310;8.646;2023-02-28T03:33:08;1.05;;;0.40;;
49139;SDS011;34959;49.310;8.646;2023-02-28T03:35:39;3.70;;;0.60;;
49139;SDS011;34959;49.310;8.646;2023-02-28T03:41:21;1.88;;;0.60;;
49139;SDS011;34959;49.310;8.646;2023-02-28T03:43:49;0.75;;;0.40;;
49139;SDS011;34959;49.310;8.646;2023-02-28T03:46:18;0.80;;;0.50;;
49139;SDS011;34959;49.310;8.646;2023-02-28T03:48:49;0.68;;;0.40;;
49139;SDS011;34959;49.310;8.646;2023-02-28T03:51:19;2.88;;;0.50;;
49139;SDS011;34959;49.310;8.646;2023-02-28T03:53:49;1.05;;;0.55;;
49139;SDS011;34959;49.310;8.646;2023-02-28T03:56:24;1.35;;;0.32;;
49139;SDS011;34959;49.310;8.646;2023-02-28T04:01:30;0.80;;;0.50;;
49139;SDS011;34959;49.310;8.646;2023-02-28T04:04:04;1.30;;;0.40;;
49139;SDS011;34959;49.310;8.646;2023-02-28T04:06:30;1.50;;;0.50;;
49139;SDS011;34959;49.310;8.646;2023-02-28T04:08:57;2.15;;;0.50;;
49139;SDS011;34959;49.310;8.646;2023-02-28T04:11:38;1.30;;;0.60;;
49139;SDS011;34959;49.310;8.646;2023-02-28T04:14:05;1.13;;;0.43;;
49139;SDS011;34959;49.310;8.646;2023-02-28T04:16:32;1.00;;;0.47;;
49139;SDS011;34959;49.310;8.646;2023-02-28T04:18:58;1.23;;;0.52;;
49139;SDS011;34959;49.310;8.646;2023-02-28T04:21:28;0.90;;;0.50;;
49139;SDS011;34959;49.310;8.646;2023-02-28T04:23:57;1.10;;;0.60;;
49139;SDS011;34959;49.310;8.646;2023-02-28T04:26:27;1.98;;;0.55;;
49139;SDS011;34959;49.310;8.646;2023-02-28T04:28:54;1.95;;;0.40;;
49139;SDS011;34959;49.310;8.646;2023-02-28T04:31:21;0.82;;;0.60;;
49139;SDS011;34959;49.310;8.646;2023-02-28T04:33:46;1.08;;;0.50;;
49139;SDS011;34959;49.310;8.646;2023-02-28T04:36:11;1.67;;;0.63;;
49139;SDS011;34959;49.310;8.646;2023-02-28T04:38:38;1.20;;;0.47;;
49139;SDS011;34959;49.310;8.646;2023-02-28T04:41:04;0.63;;;0.40;;
49139;SDS011;34959;49.310;8.646;2023-02-28T04:43:30;1.95;;;0.55;;
49139;SDS011;34959;49.310;8.646;2023-02-28T04:45:56;1.58;;;0.60;;
49139;SDS011;34959;49.310;8.646;2023-02-28T04:48:23;1.63;;;0.50;;
49139;SDS011;34959;49.310;8.646;2023-02-28T04:50:49;0.65;;;0.40;;
49139;SDS011;34959;49.310;8.646;2023-02-28T04:53:15;1.77;;;0.50;;
49139;SDS011;34959;49.310;8.646;2023-02-28T04:55:41;1.42;;;0.50;;
49139;SDS011;34959;49.310;8.646;2023-02-28T04:58:06;0.90;;;0.43;;
49139;SDS011;34959;49.310;8.646;2023-02-28T05:00:32;1.30;;;0.40;;
49139;SDS011;34959;49.310;8.646;2023-02-28T05:02:57;0.95;;;0.50;;
49139;SDS011;34959;49.310;8.646;2023-02-28T05:05:22;7.65;;;0.60;;
49139;SDS011;34959;49.310;8.646;2023-02-28T05:07:48;0.82;;;0.45;;
49139;SDS011;34959;49.310;8.646;2023-02-28T05:10:13;0.70;;;0.50;;
49139;SDS011;34959;49.310;8.646;2023-02-28T05:12:39;0.90;;;0.60;;
49139;SDS011;34959;49.310;8.646;2023-02-28T05:15:04;4.60;;;0.60;;
49139;SDS011;34959;49.310;8.646;2023-02-28T05:17:30;0.85;;;0.52;;
49139;SDS011;34959;49.310;8.646;2023-02-28T05:19:56;0.70;;;0.50;;
49139;SDS011;34959;49.310;8.646;2023-02-28T05:22:22;0.68;;;0.30;;
49139;SDS011;34959;49.310;8.646;2023-02-28T05:24:48;1.33;;;0.60;;
49139;SDS011;34959;49.310;8.646;2023-02-28T05:27:13;2.03;;;0.40;;
49139;SDS011;34959;49.310;8.646;2023-02-28T05:29:39;0.80;;;0.40;;
49139;SDS011;34959;49.310;8.646;2023-02-28T05:32:10;1.27;;;0.60;;
49139;SDS011;34959;49.310;8.646;2023-02-28T05:34:36;1.33;;;0.55;;
49139;SDS011;34959;49.310;8.646;2023-02-28T05:37:05;4.03;;;1.15;;
49139;SDS011;34959;49.310;8.646;2023-02-28T05:39:32;1.95;;;0.65;;
49139;SDS011;34959;49.310;8.646;2023-02-28T05:41:58;3.55;;;0.50;;
49139;SDS011;34959;49.310;8.646;2023-02-28T05:44:23;1.85;;;0.50;;
49139;SDS011;34959;49.310;8.646;2023-02-28T05:46:49;0.57;;;0.45;;
49139;SDS011;34959;49.310;8.646;2023-02-28T05:49:14;1.02;;;0.55;;
49139;SDS011;34959;49.310;8.646;2023-02-28T05:51:40;0.90;;;0.52;;
49139;SDS011;34959;49.310;8.646;2023-02-28T05:54:05;1.80;;;0.60;;
49139;SDS011;34959;49.310;8.646;2023-02-28T05:56:31;1.30;;;0.60;;
49139;SDS011;34959;49.310;8.646;2023-02-28T05:58:59;0.90;;;0.60;;
49139;SDS011;34959;49.310;8.646;2023-02-28T06:03:58;1.33;;;0.60;;
49139;SDS011;34959;49.310;8.646;2023-02-28T06:06:25;1.00;;;0.60;;
49139;SDS011;34959;49.310;8.646;2023-02-28T06:08:50;2.13;;;0.60;;
49139;SDS011;34959;49.310;8.646;2023-02-28T06:11:16;0.73;;;0.30;;
49139;SDS011;34959;49.310;8.646;2023-02-28T06:13:41;1.17;;;0.55;;
49139;SDS011;34959;49.310;8.646;2023-02-28T06:16:08;0.98;;;0.50;;
49139;SDS011;34959;49.310;8.646;2023-02-28T06:18:34;0.68;;;0.50;;
49139;SDS011;34959;49.310;8.646;2023-02-28T06:20:59;1.35;;;0.63;;
49139;SDS011;34959;49.310;8.646;2023-02-28T06:23:25;0.60;;;0.50;;
49139;SDS011;34959;49.310;8.646;2023-02-28T06:25:50;1.17;;;0.70;;
49139;SDS011;34959;49.310;8.646;2023-02-28T06:28:17;0.73;;;0.50;;
49139;SDS011;34959;49.310;8.646;2023-02-28T06:30:43;0.82;;;0.50;;
49139;SDS011;34959;49.310;8.646;2023-02-28T06:33:08;1.38;;;0.50;;
49139;SDS011;34959;49.310;8.646;2023-02-28T06:35:34;1.58;;;0.70;;
49139;SDS011;34959;49.310;8.646;2023-02-28T06:38:00;0.88;;;0.52;;
49139;SDS011;34959;49.310;8.646;2023-02-28T06:40:25;0.93;;;0.60;;
49139;SDS011;34959;49.310;8.646;2023-02-28T06:42:51;1.42;;;0.60;;
49139;SDS011;34959;49.310;8.646;2023-02-28T06:45:17;0.90;;;0.50;;
49139;SDS011;34959;49.310;8.646;2023-02-28T06:47:42;1.23;;;0.63;;
49139;SDS011;34959;49.310;8.646;2023-02-28T06:50:09;1.90;;;0.95;;
49139;SDS011;34959;49.310;8.646;2023-02-28T06:52:36;1.48;;;0.70;;
49139;SDS011;34959;49.310;8.646;2023-02-28T06:55:03;1.23;;;0.60;;
49139;SDS011;34959;49.310;8.646;2023-02-28T06:57:30;0.80;;;0.45;;
49139;SDS011;34959;49.310;8.646;2023-02-28T06:59:57;4.03;;;0.70;;
49139;SDS011;34959;49.310;8.646;2023-02-28T07:02:23;1.20;;;0.50;;
49139;SDS011;34959;49.310;8.646;2023-02-28T07:04:49;1.67;;;0.68;;
49139;SDS011;34959;49.310;8.646;2023-02-28T07:07:14;0.88;;;0.50;;
49139;SDS011;34959;49.310;8.646;2023-02-28T07:09:40;3.13;;;0.90;;
49139;SDS011;34959;49.310;8.646;2023-02-28T07:12:05;3.08;;;0.57;;
49139;SDS011;34959;49.310;8.646;2023-02-28T07:14:31;2.35;;;0.60;;
49139;SDS011;34959;49.310;8.646;2023-02-28T07:16:56;1.60;;;0.77;;
49139;SDS011;34959;49.310;8.646;2023-02-28T07:19:22;0.82;;;0.50;;
49139;SDS011;34959;49.310;8.646;2023-02-28T07:21:47;1.23;;;0.50;;
49139;SDS011;34959;49.310;8.646;2023-02-28T07:24:13;0.98;;;0.50;;
49139;SDS011;34959;49.310;8.646;2023-02-28T07:26:40;2.05;;;0.88;;
49139;SDS011;34959;49.310;8.646;2023-02-28T07:29:06;0.82;;;0.63;;
49139;SDS011;34959;49.310;8.646;2023-02-28T07:31:31;2.53;;;0.70;;
49139;SDS011;34959;49.310;8.646;2023-02-28T07:33:57;1.48;;;0.60;;
49139;SDS011;34959;49.310;8.646;2023-02-28T07:36:22;4.03;;;0.52;;
49139;SDS011;34959;49.310;8.646;2023-02-28T07:38:47;1.08;;;0.50;;
49139;SDS011;34959;49.310;8.646;2023-02-28T07:41:15;1.92;;;0.47;;
49139;SDS011;34959;49.310;8.646;2023-02-28T07:43:41;2.90;;;0.73;;
49139;SDS011;34959;49.310;8.646;2023-02-28T07:46:11;1.45;;;0.65;;
49139;SDS011;34959;49.310;8.646;2023-02-28T07:48:37;1.73;;;0.70;;
49139;SDS011;34959;49.310;8.646;2023-02-28T07:51:03;1.00;;;0.60;;
49139;SDS011;34959;49.310;8.646;2023-02-28T07:53:29;1.33;;;0.60;;
49139;SDS011;34959;49.310;8.646;2023-02-28T07:55:58;0.95;;;0.65;;
49139;SDS011;34959;49.310;8.646;2023-02-28T07:58:25;1.17;;;0.70;;
49139;SDS011;34959;49.310;8.646;2023-02-28T08:00:52;4.50;;;0.65;;
49139;SDS011;34959;49.310;8.646;2023-02-28T08:03:18;1.42;;;0.70;;
49139;SDS011;34959;49.310;8.646;2023-02-28T08:05:45;1.33;;;0.75;;
49139;SDS011;34959;49.310;8.646;2023-02-28T08:08:10;1.38;;;0.52;;
49139;SDS011;34959;49.310;8.646;2023-02-28T08:10:36;1.00;;;0.50;;
49139;SDS011;34959;49.310;8.646;2023-02-28T08:13:01;1.55;;;0.80;;
49139;SDS011;34959;49.310;8.646;2023-02-28T08:15:27;1.10;;;0.50;;
49139;SDS011;34959;49.310;8.646;2023-02-28T08:17:52;3.38;;;0.73;;
49139;SDS011;34959;49.310;8.646;2023-02-28T08:20:18;1.10;;;0.63;;
49139;SDS011;34959;49.310;8.646;2023-02-28T08:22:44;1.08;;;0.60;;
49139;SDS011;34959;49.310;8.646;2023-02-28T08:25:09;1.30;;;0.65;;
49139;SDS011;34959;49.310;8.646;2023-02-28T08:27:35;1.02;;;0.70;;
49139;SDS011;34959;49.310;8.646;2023-02-28T08:30:01;1.73;;;0.90;;
49139;SDS011;34959;49.310;8.646;2023-02-28T08:32:28;0.98;;;0.68;;
49139;SDS011;34959;49.310;8.646;2023-02-28T08:34:53;2.00;;;0.70;;
49139;SDS011;34959;49.310;8.646;2023-02-28T08:37:19;4.00;;;1.15;;
49139;SDS011;34959;49.310;8.646;2023-02-28T08:39:44;0.73;;;0.60;;
49139;SDS011;34959;49.310;8.646;2023-02-28T08:42:09;1.90;;;0.75;;
49139;SDS011;34959;49.310;8.646;2023-02-28T08:44:35;0.98;;;0.70;;
49139;SDS011;34959;49.310;8.646;2023-02-28T08:47:00;1.45;;;0.63;;
49139;SDS011;34959;49.310;8.646;2023-02-28T08:49:26;1.00;;;0.70;;
49139;SDS011;34959;49.310;8.646;2023-02-28T08:51:51;1.77;;;0.88;;
49139;SDS011;34959;49.310;8.646;2023-02-28T08:54:17;1.45;;;0.70;;
49139;SDS011;34959;49.310;8.646;2023-02-28T08:56:45;2.15;;;0.80;;
49139;SDS011;34959;49.310;8.646;2023-02-28T08:59:11;2.72;;;0.70;;
49139;SDS011;34959;49.310;8.646;2023-02-28T09:01:37;2.38;;;0.75;;
49139;SDS011;34959;49.310;8.646;2023-02-28T09:04:02;2.72;;;1.02;;
49139;SDS011;34959;49.310;8.646;2023-02-28T09:06:28;4.53;;;0.80;;
49139;SDS011;34959;49.310;8.646;2023-02-28T09:08:56;1.35;;;0.80;;
49139;SDS011;34959;49.310;8.646;2023-02-28T09:11:23;1.65;;;0.82;;
49139;SDS011;34959;49.310;8.646;2023-02-28T09:13:49;2.22;;;0.90;;
49139;SDS011;34959;49.310;8.646;2023-02-28T09:16:15;1.33;;;0.88;;
49139;SDS011;34959;49.310;8.646;2023-02-28T09:18:41;1.35;;;0.63;;
49139;SDS011;34959;49.310;8.646;2023-02-28T09:21:08;1.70;;;0.70;;
49139;SDS011;34959;49.310;8.646;2023-02-28T09:23:34;2.33;;;0.70;;
49139;SDS011;34959;49.310;8.646;2023-02-28T09:26:00;1.45;;;0.85;;
49139;SDS011;34959;49.310;8.646;2023-02-28T09:28:25;2.97;;;0.95;;
49139;SDS011;34959;49.310;8.646;2023-02-28T09:30:52;1.60;;;0.77;;
49139;SDS011;34959;49.310;8.646;2023-02-28T09:33:19;2.08;;;0.70;;
49139;SDS011;34959;49.310;8.646;2023-02-28T09:35:48;1.33;;;0.90;;
49139;SDS011;34959;49.310;8.646;2023-02-28T09:38:14;3.40;;;0.80;;
49139;SDS011;34959;49.310;8.646;2023-02-28T09:40:46;4.13;;;0.75;;
49139;SDS011;34959;49.310;8.646;2023-02-28T09:43:14;2.45;;;0.98;;
49139;SDS011;34959;49.310;8.646;2023-02-28T09:45:41;1.50;;;0.82;;
49139;SDS011;34959;49.310;8.646;2023-02-28T09:48:12;1.77;;;0.80;;
49139;SDS011;34959;49.310;8.646;2023-02-28T09:50:52;1.27;;;0.60;;
49139;SDS011;34959;49.310;8.646;2023-02-28T09:53:41;1.98;;;0.90;;
49139;SDS011;34959;49.310;8.646;2023-02-28T09:58:47;2.38;;;0.88;;
49139;SDS011;34959;49.310;8.646;2023-02-28T10:01:45;1.63;;;0.95;;
49139;SDS011;34959;49.310;8.646;2023-02-28T10:06:50;1.88;;;1.02;;
49139;SDS011;34959;49.310;8.646;2023-02-28T10:09:17;6.65;;;1.00;;
49139;SDS011;34959;49.310;8.646;2023-02-28T10:11:47;3.10;;;0.90;;
49139;SDS011;34959;49.310;8.646;2023-02-28T10:14:16;1.15;;;0.80;;
49139;SDS011;34959;49.310;8.646;2023-02-28T10:17:00;1.25;;;0.80;;
49139;SDS011;34959;49.310;8.646;2023-02-28T10:19:30;1.67;;;0.90;;
49139;SDS011;34959;49.310;8.646;2023-02-28T10:22:03;1.77;;;0.90;;
49139;SDS011;34959;49.310;8.646;2023-02-28T10:24:44;2.03;;;1.00;;
49139;SDS011;34959;49.310;8.646;2023-02-28T10:27:18;1.25;;;0.88;;
49139;SDS011;34959;49.310;8.646;2023-02-28T10:29:46;1.80;;;0.90;;
49139;SDS011;34959;49.310;8.646;2023-02-28T10:32:14;4.55;;;1.20;;
49139;SDS011;34959;49.310;8.646;2023-02-28T10:34:42;2.70;;;0.90;;
49139;SDS011;34959;49.310;8.646;2023-02-28T10:37:08;2.03;;;1.00;;
49139;SDS011;34959;49.310;8.646;2023-02-28T10:39:35;2.45;;;1.05;;
49139;SDS011;34959;49.310;8.646;2023-02-28T10:45:13;1.35;;;0.95;;
49139;SDS011;34959;49.310;8.646;2023-02-28T10:47:48;1.92;;;1.10;;
49139;SDS011;34959;49.310;8.646;2023-02-28T10:50:26;1.55;;;0.93;;
49139;SDS011;34959;49.310;8.646;2023-02-28T10:52:52;1.93;;;1.03;;
49139;SDS011;34959;49.310;8.646;2023-02-28T10:55:22;2.88;;;1.20;;
49139;SDS011;34959;49.310;8.646;2023-02-28T10:57:50;1.23;;;0.95;;
49139;SDS011;34959;49.310;8.646;2023-02-28T11:00:18;1.55;;;1.17;;
49139;SDS011;34959;49.310;8.646;2023-02-28T11:02:46;3.20;;;1.23;;
49139;SDS011;34959;49.310;8.646;2023-02-28T11:05:23;1.73;;;1.00;;
49139;SDS011;34959;49.310;8.646;2023-02-28T11:08:06;1.98;;;1.20;;
49139;SDS011;34959;49.310;8.646;2023-02-28T11:10:37;1.52;;;1.00;;
49139;SDS011;34959;49.310;8.646;2023-02-28T11:13:03;1.80;;;1.10;;
49139;SDS011;34959;49.310;8.646;2023-02-28T11:15:30;1.60;;;1.00;;
49139;SDS011;34959;49.310;8.646;2023-02-28T11:17:58;2.55;;;1.45;;
49139;SDS011;34959;49.310;8.646;2023-02-28T11:20:27;2.05;;;1.15;;
49139;SDS011;34959;49.310;8.646;2023-02-28T11:22:54;2.17;;;1.30;;
49139;SDS011;34959;49.310;8.646;2023-02-28T11:25:22;1.92;;;1.13;;
49139;SDS011;34959;49.310;8.646;2023-02-28T11:27:56;2.50;;;1.05;;
49139;SDS011;34959;49.310;8.646;2023-02-28T11:30:37;3.35;;;1.17;;
49139;SDS011;34959;49.310;8.646;2023-02-28T11:35:52;1.95;;;1.33;;
49139;SDS011;34959;49.310;8.646;2023-02-28T11:38:23;6.82;;;4.07;;
49139;SDS011;34959;49.310;8.646;2023-02-28T11:51:48;2.92;;;1.67;;
49139;SDS011;34959;49.310;8.646;2023-02-28T11:54:24;4.80;;;1.85;;
49139;SDS011;34959;49.310;8.646;2023-02-28T11:57:31;3.50;;;1.80;;
49139;SDS011;34959;49.310;8.646;2023-02-28T12:00:30;3.00;;;1.50;;
49139;SDS011;34959;49.310;8.646;2023-02-28T12:05:44;2.58;;;1.50;;
49139;SDS011;34959;49.310;8.646;2023-02-28T12:13:58;4.03;;;1.95;;
49139;SDS011;34959;49.310;8.646;2023-02-28T12:24:47;4.38;;;1.60;;
49139;SDS011;34959;49.310;8.646;2023-02-28T12:27:15;2.88;;;1.90;;
49139;SDS011;34959;49.310;8.646;2023-02-28T12:30:02;3.08;;;1.70;;
49139;SDS011;34959;49.310;8.646;2023-02-28T12:32:40;4.60;;;1.70;;
49139;SDS011;34959;49.310;8.646;2023-02-28T12:37:37;6.40;;;1.70;;
49139;SDS011;34959;49.310;8.646;2023-02-28T12:40:31;4.47;;;1.50;;
49139;SDS011;34959;49.310;8.646;2023-02-28T12:43:15;2.67;;;1.45;;
49139;SDS011;34959;49.310;8.646;2023-02-28T12:45:52;3.08;;;1.60;;
49139;SDS011;34959;49.310;8.646;2023-02-28T12:48:26;4.35;;;1.75;;
49139;SDS011;34959;49.310;8.646;2023-02-28T12:50:54;4.18;;;1.90;;
49139;SDS011;34959;49.310;8.646;2023-02-28T12:53:29;4.70;;;1.75;;
49139;SDS011;34959;49.310;8.646;2023-02-28T12:58:49;4.32;;;1.65;;
49139;SDS011;34959;49.310;8.646;2023-02-28T13:07:12;3.00;;;1.65;;
49139;SDS011;34959;49.310;8.646;2023-02-28T13:09:59;2.90;;;1.65;;
49139;SDS011;34959;49.310;8.646;2023-02-28T13:12:26;2.95;;;1.60;;
49139;SDS011;34959;49.310;8.646;2023-02-28T13:15:00;2.17;;;1.38;;
49139;SDS011;34959;49.310;8.646;2023-02-28T13:17:29;2.42;;;1.50;;
49139;SDS011;34959;49.310;8.646;2023-02-28T13:19:56;5.15;;;1.80;;
49139;SDS011;34959;49.310;8.646;2023-02-28T13:27:54;2.40;;;1.50;;
49139;SDS011;34959;49.310;8.646;2023-02-28T13:35:50;2.45;;;1.50;;
49139;SDS011;34959;49.310;8.646;2023-02-28T13:38:51;2.42;;;1.27;;
49139;SDS011;34959;49.310;8.646;2023-02-28T13:44:00;2.90;;;1.70;;
49139;SDS011;34959;49.310;8.646;2023-02-28T13:46:33;3.30;;;1.60;;
49139;SDS011;34959;49.310;8.646;2023-02-28T13:51:53;2.65;;;1.33;;
49139;SDS011;34959;49.310;8.646;2023-02-28T13:57:33;2.63;;;1.40;;
49139;SDS011;34959;49.310;8.646;2023-02-28T14:06:03;2.05;;;1.50;;
49139;SDS011;34959;49.310;8.646;2023-02-28T14:08:34;3.10;;;2.50;;
49139;SDS011;34959;49.310;8.646;2023-02-28T14:11:04;7.93;;;4.35;;
49139;SDS011;34959;49.310;8.646;2023-02-28T14:13:44;6.65;;;5.03;;
49139;SDS011;34959;49.310;8.646;2023-02-28T14:16:16;7.15;;;5.00;;
49139;SDS011;34959;49.310;8.646;2023-02-28T14:18:48;5.32;;;3.80;;
49139;SDS011;34959;49.310;8.646;2023-02-28T14:21:20;4.45;;;3.88;;
49139;SDS011;34959;49.310;8.646;2023-02-28T14:37:39;3.83;;;2.43;;
49139;SDS011;34959;49.310;8.646;2023-02-28T14:40:16;3.40;;;2.20;;
49139;SDS011;34959;49.310;8.646;2023-02-28T14:42:57;5.45;;;2.58;;
49139;SDS011;34959;49.310;8.646;2023-02-28T14:45:25;4.28;;;2.45;;
49139;SDS011;34959;49.310;8.646;2023-02-28T14:47:53;3.83;;;2.15;;
49139;SDS011;34959;49.310;8.646;2023-02-28T14:50:23;3.92;;;2.33;;
49139;SDS011;34959;49.310;8.646;2023-02-28T14:52:55;5.18;;;2.08;;
49139;SDS011;34959;49.310;8.646;2023-02-28T14:55:43;6.00;;;1.80;;
49139;SDS011;34959;49.310;8.646;2023-02-28T14:58:19;2.17;;;1.60;;
49139;SDS011;34959;49.310;8.646;2023-02-28T15:00:55;3.08;;;1.70;;
49139;SDS011;34959;49.310;8.646;2023-02-28T15:03:23;3.97;;;2.05;;
49139;SDS011;34959;49.310;8.646;2023-02-28T15:06:31;2.92;;;2.10;;
49139;SDS011;34959;49.310;8.646;2023-02-28T15:08:38;2.72;;;1.67;;
49139;SDS011;34959;49.310;8.646;2023-02-28T15:11:05;3.42;;;1.90;;
49139;SDS011;34959;49.310;8.646;2023-02-28T15:13:36;3.90;;;1.98;;
49139;SDS011;34959;49.310;8.646;2023-02-28T15:16:13;3.35;;;1.83;;
49139;SDS011;34959;49.310;8.646;2023-02-28T15:18:51;6.30;;;1.95;;
49139;SDS011;34959;49.310;8.646;2023-02-28T15:21:22;4.78;;;1.52;;
49139;SDS011;34959;49.310;8.646;2023-02-28T15:23:52;2.92;;;1.60;;
49139;SDS011;34959;49.310;8.646;2023-02-28T15:28:46;2.70;;;1.73;;
49139;SDS011;34959;49.310;8.646;2023-02-28T15:31:19;2.83;;;1.50;;
49139;SDS011;34959;49.310;8.646;2023-02-28T15:33:57;2.63;;;1.45;;
49139;SDS011;34959;49.310;8.646;2023-02-28T15:36:32;2.88;;;1.83;;
49139;SDS011;34959;49.310;8.646;2023-02-28T15:39:02;3.65;;;1.63;;
49139;SDS011;34959;49.310;8.646;2023-02-28T15:41:29;4.68;;;1.75;;
49139;SDS011;34959;49.310;8.646;2023-02-28T15:46:43;3.05;;;1.90;;
49139;SDS011;34959;49.310;8.646;2023-02-28T15:49:32;5.55;;;2.20;;
49139;SDS011;34959;49.310;8.646;2023-02-28T15:52:05;2.67;;;1.70;;
49139;SDS011;34959;49.310;8.646;2023-02-28T15:54:34;3.67;;;1.80;;
49139;SDS011;34959;49.310;8.646;2023-02-28T15:57:04;9.00;;;1.85;;
49139;SDS011;34959;49.310;8.646;2023-02-28T15:59:33;5.53;;;1.70;;
49139;SDS011;34959;49.310;8.646;2023-02-28T16:02:13;2.22;;;1.70;;
49139;SDS011;34959;49.310;8.646;2023-02-28T16:07:43;3.90;;;1.80;;
49139;SDS011;34959;49.310;8.646;2023-02-28T16:10:10;4.18;;;1.58;;
49139;SDS011;34959;49.310;8.646;2023-02-28T16:12:37;2.67;;;1.60;;
49139;SDS011;34959;49.310;8.646;2023-02-28T16:15:17;2.70;;;1.60;;
49139;SDS011;34959;49.310;8.646;2023-02-28T16:17:44;5.38;;;1.58;;
49139;SDS011;34959;49.310;8.646;2023-02-28T16:20:21;4.15;;;1.77;;
49139;SDS011;34959;49.310;8.646;2023-02-28T16:22:48;2.58;;;1.55;;
49139;SDS011;34959;49.310;8.646;2023-02-28T16:25:14;4.03;;;1.40;;
49139;SDS011;34959;49.310;8.646;2023-02-28T16:27:41;4.57;;;1.92;;
49139;SDS011;34959;49.310;8.646;2023-02-28T16:30:07;3.17;;;2.03;;
49139;SDS011;34959;49.310;8.646;2023-02-28T16:32:44;2.38;;;1.50;;
49139;SDS011;34959;49.310;8.646;2023-02-28T16:35:10;2.92;;;1.75;;
49139;SDS011;34959;49.310;8.646;2023-02-28T16:37:36;2.70;;;1.73;;
49139;SDS011;34959;49.310;8.646;2023-02-28T16:40:02;2.53;;;1.75;;
49139;SDS011;34959;49.310;8.646;2023-02-28T16:42:28;2.97;;;1.67;;
49139;SDS011;34959;49.310;8.646;2023-02-28T16:44:54;2.33;;;1.70;;
49139;SDS011;34959;49.310;8.646;2023-02-28T16:47:20;5.63;;;2.00;;
49139;SDS011;34959;49.310;8.646;2023-02-28T16:49:46;2.55;;;1.80;;
49139;SDS011;34959;49.310;8.646;2023-02-28T16:52:12;2.53;;;1.60;;
49139;SDS011;34959;49.310;8.646;2023-02-28T16:54:39;8.25;;;3.72;;
49139;SDS011;34959;49.310;8.646;2023-02-28T16:57:05;2.42;;;1.95;;
49139;SDS011;34959;49.310;8.646;2023-02-28T16:59:31;3.45;;;2.00;;
49139;SDS011;34959;49.310;8.646;2023-02-28T17:01:57;2.42;;;1.70;;
49139;SDS011;34959;49.310;8.646;2023-02-28T17:04:24;4.40;;;1.88;;
49139;SDS011;34959;49.310;8.646;2023-02-28T17:06:51;5.18;;;1.98;;
49139;SDS011;34959;49.310;8.646;2023-02-28T17:09:20;4.18;;;1.60;;
49139;SDS011;34959;49.310;8.646;2023-02-28T17:11:47;2.50;;;1.60;;
49139;SDS011;34959;49.310;8.646;2023-02-28T17:14:13;5.63;;;1.88;;
49139;SDS011;34959;49.310;8.646;2023-02-28T17:16:39;3.72;;;1.75;;